createdAt,value
2023-02-08T00:00:22.473Z,21.50
2023-02-08T00:03:28.303Z,19.20
2023-02-08T00:06:40.106Z,24.50
2023-02-08T00:09:42.674Z,20.20
2023-02-08T00:12:48.158Z,24.60
2023-02-08T00:15:53.290Z,19.10
2023-02-08T00:22:02.942Z,20.90
2023-02-08T00:25:08.921Z,22.80
2023-02-08T00:28:16.896Z,23.80
2023-02-08T00:31:39.151Z,23.50
2023-02-08T00:34:41.949Z,22.00
2023-02-08T00:37:45.846Z,21.80
2023-02-08T00:40:53.341Z,25.90
2023-02-08T00:43:58.856Z,28.70
2023-02-08T00:47:03.976Z,27.50
2023-02-08T00:50:10.829Z,26.20
2023-02-08T00:53:16.695Z,24.90
2023-02-08T00:56:25.985Z,24.20
2023-02-08T00:59:28.770Z,29.70
2023-02-08T01:02:35.092Z,25.30
2023-02-08T01:05:42.458Z,29.20
2023-02-08T01:08:47.701Z,28.50
2023-02-08T01:11:55.923Z,26.00
2023-02-08T01:14:59.283Z,24.90
2023-02-08T01:18:03.836Z,24.50
2023-02-08T01:21:09.085Z,25.40
2023-02-08T01:24:14.153Z,35.50
2023-02-08T01:27:21.411Z,32.90
2023-02-08T01:30:25.766Z,32.20
2023-02-08T01:33:29.546Z,25.00
2023-02-08T01:36:37.510Z,27.90
2023-02-08T01:39:42.689Z,24.50
2023-02-08T01:42:48.098Z,25.30
2023-02-08T01:45:50.916Z,28.60
2023-02-08T01:49:01.843Z,30.80
2023-02-08T01:52:33.816Z,32.70
2023-02-08T01:55:45.531Z,29.70
2023-02-08T01:58:57.578Z,26.10
2023-02-08T02:02:07.004Z,24.50
2023-02-08T02:05:13.885Z,24.30
2023-02-08T02:08:19.586Z,30.30
2023-02-08T02:11:24.220Z,25.60
2023-02-08T02:14:51.825Z,32.40
2023-02-08T02:17:57.438Z,29.40
2023-02-08T02:21:45.646Z,24.10
2023-02-08T02:24:56.978Z,27.00
2023-02-08T02:28:37.907Z,33.20
2023-02-08T02:31:49.699Z,36.50
2023-02-08T02:35:09.332Z,30.00
2023-02-08T02:38:36.857Z,33.40
2023-02-08T02:42:29.421Z,31.70
2023-02-08T02:46:05.212Z,27.40
2023-02-08T02:49:23.608Z,32.50
2023-02-08T02:52:42.335Z,28.90
2023-02-08T02:55:52.327Z,26.70
2023-02-08T02:59:16.446Z,34.90
2023-02-08T03:02:29.199Z,28.30
2023-02-08T03:05:31.572Z,28.40
2023-02-08T03:08:51.524Z,28.40
2023-02-08T03:12:12.251Z,30.40
2023-02-08T03:15:39.826Z,27.70
2023-02-08T03:19:03.817Z,25.70
2023-02-08T03:22:53.884Z,26.60
2023-02-08T03:26:25.846Z,35.20
2023-02-08T03:29:57.231Z,31.50
2023-02-08T03:33:40.555Z,31.30
2023-02-08T03:37:22.345Z,28.20
2023-02-08T03:40:51.036Z,39.10
2023-02-08T03:44:39.290Z,26.60
2023-02-08T03:47:49.050Z,36.80
2023-02-08T03:51:02.471Z,35.40
2023-02-08T03:54:17.402Z,31.80
2023-02-08T03:57:31.492Z,35.20
2023-02-08T04:00:41.718Z,42.50
2023-02-08T04:03:49.657Z,41.30
2023-02-08T04:06:57.852Z,43.60
2023-02-08T04:10:07.450Z,37.10
2023-02-08T04:13:19.412Z,44.40
2023-02-08T04:17:01.858Z,48.30
2023-02-08T04:20:17.399Z,36.90
2023-02-08T04:23:32.620Z,43.20
2023-02-08T04:26:41.903Z,36.30
2023-02-08T04:29:51.403Z,40.30
2023-02-08T04:33:07.709Z,35.10
2023-02-08T04:36:25.634Z,33.90
2023-02-08T04:39:38.273Z,34.60
2023-02-08T04:42:43.473Z,35.80
2023-02-08T04:45:51.690Z,34.30
2023-02-08T04:49:03.032Z,37.20
2023-02-08T04:52:25.699Z,49.90
2023-02-08T04:55:38.642Z,35.70
2023-02-08T04:58:49.408Z,43.20
2023-02-08T05:02:01.550Z,38.90
2023-02-08T05:05:10.761Z,39.70
2023-02-08T05:08:20.534Z,37.80
2023-02-08T05:11:44.269Z,40.90
2023-02-08T05:14:57.292Z,41.80
2023-02-08T05:18:10.418Z,41.40
2023-02-08T05:21:16.788Z,45.90
2023-02-08T05:24:29.610Z,44.50
2023-02-08T05:27:44.474Z,37.60
2023-02-08T05:31:30.757Z,43.70
2023-02-08T05:34:48.876Z,39.90
2023-02-08T05:37:58.066Z,40.40
2023-02-08T05:41:35.745Z,38.00
2023-02-08T05:45:04.757Z,45.90
2023-02-08T05:48:25.374Z,41.40
2023-02-08T05:51:37.675Z,43.10
2023-02-08T05:54:54.249Z,42.70
2023-02-08T05:58:05.965Z,38.60
2023-02-08T06:01:39.029Z,32.80
2023-02-08T06:04:57.863Z,36.40
2023-02-08T06:08:14.115Z,35.40
2023-02-08T06:11:31.465Z,31.70
2023-02-08T06:14:46.099Z,34.40
2023-02-08T06:18:02.933Z,40.70
2023-02-08T06:21:34.496Z,44.90
2023-02-08T06:24:41.516Z,36.80
2023-02-08T06:27:57.501Z,41.20
2023-02-08T06:31:01.239Z,44.00
2023-02-08T06:34:06.147Z,34.80
2023-02-08T06:37:12.273Z,38.10
2023-02-08T07:36:23.726Z,35.20
2023-02-08T07:39:32.158Z,37.10
2023-02-08T07:42:41.421Z,43.30
2023-02-08T07:45:53.935Z,47.00
2023-02-08T07:48:58.812Z,48.70
2023-02-08T07:52:04.301Z,52.40
2023-02-08T07:55:10.135Z,53.70
2023-02-08T07:58:23.194Z,49.80
2023-02-08T08:01:30.789Z,47.30
2023-02-08T08:04:36.109Z,44.80
2023-02-08T08:07:43.323Z,49.70
2023-02-08T08:10:52.502Z,48.90
2023-02-08T08:13:59.222Z,53.80
2023-02-08T08:17:07.531Z,52.70
2023-02-08T08:20:13.413Z,51.00
2023-02-08T08:23:17.149Z,56.00
2023-02-08T08:26:25.078Z,45.00
2023-02-08T08:29:32.964Z,42.10
2023-02-08T08:32:40.334Z,52.10
2023-02-08T08:35:47.397Z,48.70
2023-02-08T08:38:54.686Z,49.30
2023-02-08T08:45:04.666Z,36.40
2023-02-08T08:48:11.158Z,47.20
2023-02-08T08:51:16.818Z,40.60
2023-02-08T08:54:21.827Z,42.00
2023-02-08T08:57:26.992Z,41.30
2023-02-08T09:00:31.797Z,42.40
2023-02-08T09:03:41.457Z,47.10
2023-02-08T09:06:45.631Z,42.40
2023-02-08T09:09:51.180Z,41.00
2023-02-08T09:12:59.759Z,43.60
2023-02-08T09:16:12.372Z,50.20
2023-02-08T09:19:20.240Z,46.40
2023-02-08T09:22:37.254Z,42.60
2023-02-08T09:25:50.222Z,42.50
2023-02-08T09:28:55.888Z,44.30
2023-02-08T09:32:04.181Z,40.00
2023-02-08T09:35:13.895Z,47.70
2023-02-08T09:38:19.959Z,38.10
2023-02-08T09:42:01.862Z,39.90
2023-02-08T09:45:31.948Z,44.40
2023-02-08T09:48:39.281Z,42.40
2023-02-08T09:52:02.875Z,45.20
2023-02-08T09:55:39.484Z,34.30
2023-02-08T09:58:55.378Z,31.00
2023-02-08T10:02:26.489Z,33.80
2023-02-08T10:05:36.160Z,34.90
2023-02-08T10:08:48.691Z,33.50
2023-02-08T10:12:28.105Z,37.30
2023-02-08T10:15:48.885Z,38.00
2023-02-08T10:19:25.776Z,36.90
2023-02-08T10:22:35.331Z,31.30
2023-02-08T10:25:56.899Z,31.90
2023-02-08T10:29:27.596Z,29.10
2023-02-08T10:33:37.843Z,24.00
2023-02-08T10:36:45.338Z,32.60
2023-02-08T10:39:51.106Z,25.40
2023-02-08T10:43:35.939Z,29.90
2023-02-08T10:46:55.448Z,20.90
2023-02-08T10:50:24.194Z,26.60
2023-02-08T10:53:32.589Z,21.30
2023-02-08T10:56:48.819Z,22.30
2023-02-08T11:00:03.924Z,20.90
2023-02-08T11:04:00.278Z,24.40
2023-02-08T11:07:23.118Z,25.90
2023-02-08T11:10:29.266Z,27.70
2023-02-08T11:13:38.156Z,24.10
2023-02-08T11:16:44.872Z,20.70
2023-02-08T11:19:54.938Z,18.40
2023-02-08T11:23:00.321Z,25.70
2023-02-08T11:26:42.751Z,16.60
2023-02-08T11:29:49.130Z,33.60
2023-02-08T11:33:20.284Z,35.50
2023-02-08T11:36:24.548Z,55.60
2023-02-08T11:40:06.330Z,45.10
2023-02-08T11:43:32.870Z,30.80
2023-02-08T11:46:42.872Z,15.90
2023-02-08T11:49:56.693Z,35.40
2023-02-08T11:53:36.877Z,22.50
2023-02-08T11:56:43.398Z,27.70
2023-02-08T11:59:51.305Z,50.60
2023-02-08T12:03:19.050Z,26.90
2023-02-08T12:06:44.717Z,27.90
2023-02-08T12:10:14.078Z,26.10
2023-02-08T12:13:46.912Z,23.50
2023-02-08T12:17:32.083Z,25.20
2023-02-08T12:20:47.895Z,26.80
2023-02-08T12:24:00.676Z,36.70
2023-02-08T12:27:10.762Z,28.00
2023-02-08T12:30:37.309Z,22.10
2023-02-08T12:34:01.654Z,26.70
2023-02-08T12:37:49.366Z,26.30
2023-02-08T12:41:10.393Z,21.60
2023-02-08T12:44:19.477Z,19.60
2023-02-08T12:48:09.040Z,20.10
2023-02-08T12:51:59.771Z,20.90
2023-02-08T12:55:19.101Z,21.60
2023-02-08T12:58:30.655Z,25.20
2023-02-08T13:01:51.729Z,23.90
2023-02-08T13:05:02.584Z,17.50
2023-02-08T13:08:13.964Z,18.40
2023-02-08T13:11:49.692Z,15.50
2023-02-08T13:15:29.621Z,17.10
2023-02-08T13:18:58.957Z,13.40
2023-02-08T13:22:07.613Z,16.50
2023-02-08T13:25:31.584Z,15.00
2023-02-08T13:28:36.360Z,13.50
2023-02-08T13:31:49.678Z,12.90
2023-02-08T13:35:20.455Z,16.20
2023-02-08T13:38:35.767Z,15.40
2023-02-08T13:41:54.446Z,13.90
2023-02-08T13:48:12.879Z,14.60
2023-02-08T13:51:53.914Z,12.90
2023-02-08T13:55:34.454Z,12.90
2023-02-08T13:59:01.664Z,13.50
2023-02-08T14:02:27.265Z,13.20
2023-02-08T14:06:12.860Z,13.80
2023-02-08T14:09:25.306Z,13.60
2023-02-08T14:12:48.597Z,14.80
2023-02-08T14:16:27.564Z,19.60
2023-02-08T14:19:43.579Z,14.80
2023-02-08T14:23:05.903Z,15.10
2023-02-08T14:26:24.356Z,20.80
2023-02-08T14:29:33.815Z,15.80
2023-02-08T14:32:40.671Z,17.80
2023-02-08T14:35:55.776Z,18.60
2023-02-08T14:39:29.348Z,22.30
2023-02-08T14:42:53.959Z,17.10
2023-02-08T14:46:42.182Z,22.60
2023-02-08T14:49:51.388Z,19.50
2023-02-08T14:53:27.900Z,21.40
2023-02-08T14:56:53.929Z,17.30
2023-02-08T15:00:07.271Z,23.40
2023-02-08T15:03:15.693Z,21.30
2023-02-08T15:07:22.347Z,17.00
2023-02-08T15:10:32.322Z,14.70
2023-02-08T15:14:01.153Z,14.00
2023-02-08T15:17:15.723Z,17.20
2023-02-08T15:20:25.766Z,13.10
2023-02-08T15:23:31.823Z,10.40
2023-02-08T15:26:53.617Z,13.80
2023-02-08T15:29:57.801Z,14.60
2023-02-08T15:33:13.363Z,12.10
2023-02-08T15:36:23.751Z,9.40
2023-02-08T15:39:41.636Z,14.70
2023-02-08T15:42:52.728Z,12.60
2023-02-08T15:46:01.085Z,12.40
2023-02-08T15:49:14.637Z,11.20
2023-02-08T15:52:27.282Z,15.10
2023-02-08T15:55:44.886Z,16.30
2023-02-08T15:58:54.865Z,32.40
2023-02-08T16:02:23.764Z,34.50
2023-02-08T16:05:34.261Z,34.60
2023-02-08T16:08:46.621Z,27.50
2023-02-08T16:11:53.603Z,24.10
2023-02-08T16:15:02.231Z,26.50
2023-02-08T16:19:07.595Z,23.80
2023-02-08T16:22:37.519Z,26.50
2023-02-08T16:30:04.031Z,25.00
2023-02-08T16:33:45.421Z,27.40
2023-02-08T16:46:45.154Z,23.50
2023-02-08T16:50:04.445Z,27.90
2023-02-08T16:53:41.485Z,31.10
2023-02-08T16:57:11.507Z,37.70
2023-02-08T17:01:04.067Z,37.50
2023-02-08T17:04:13.634Z,34.20
2023-02-08T17:13:03.862Z,38.90
2023-02-08T17:16:27.498Z,43.10
2023-02-08T17:19:38.985Z,49.00
2023-02-08T17:22:53.124Z,53.40
2023-02-08T17:26:15.257Z,56.30
2023-02-08T17:29:31.419Z,49.30
2023-02-08T17:32:45.881Z,42.40
2023-02-08T17:35:56.079Z,43.10
2023-02-08T17:39:01.605Z,42.00
2023-02-08T17:42:13.976Z,44.70
2023-02-08T17:45:27.840Z,40.50
2023-02-08T17:48:37.999Z,32.80
2023-02-08T17:51:49.075Z,39.70
2023-02-08T17:55:11.531Z,40.70
2023-02-08T17:58:19.640Z,43.20
2023-02-08T18:01:31.996Z,49.80
2023-02-08T18:04:39.837Z,54.90
2023-02-08T18:07:51.422Z,65.40
2023-02-08T18:11:05.272Z,61.60
2023-02-08T18:14:13.292Z,47.30
2023-02-08T18:20:36.244Z,71.80
2023-02-08T18:23:55.975Z,65.40
2023-02-08T18:27:02.532Z,67.20
2023-02-08T18:30:14.208Z,71.40
2023-02-08T18:33:26.782Z,80.00
2023-02-08T18:36:36.022Z,67.60
2023-02-08T18:39:47.677Z,46.70
2023-02-08T18:42:57.732Z,33.90
2023-02-08T18:46:07.264Z,44.10
2023-02-08T18:49:17.121Z,46.00
2023-02-08T18:52:23.947Z,40.80
2023-02-08T18:55:34.261Z,36.00
2023-02-08T18:58:40.800Z,21.70
2023-02-08T19:01:57.334Z,27.90
2023-02-08T19:05:15.762Z,37.20
2023-02-08T19:08:30.144Z,36.80
2023-02-08T19:11:40.473Z,23.00
2023-02-08T19:14:55.593Z,26.90
2023-02-08T19:18:00.022Z,27.60
2023-02-08T19:21:26.046Z,28.30
2023-02-08T19:24:35.204Z,29.10
2023-02-08T19:27:46.014Z,28.30
2023-02-08T19:30:51.044Z,26.90
2023-02-08T19:34:00.473Z,45.50
2023-02-08T19:37:07.977Z,105.10
2023-02-08T19:40:18.359Z,48.30
2023-02-08T19:43:27.050Z,28.60
2023-02-08T19:50:04.380Z,32.50
2023-02-08T19:53:11.149Z,53.10
2023-02-08T19:56:21.436Z,78.00
2023-02-08T19:59:35.455Z,76.40
2023-02-08T20:02:45.222Z,45.60
2023-02-08T20:05:59.810Z,57.70
2023-02-08T20:09:05.471Z,56.60
2023-02-08T20:12:14.404Z,35.20
2023-02-08T20:15:21.580Z,34.20
2023-02-08T20:18:28.831Z,50.10
2023-02-08T20:21:44.577Z,121.70
2023-02-08T20:24:56.146Z,93.00
2023-02-08T20:28:06.244Z,78.10
2023-02-08T20:31:17.884Z,68.20
2023-02-08T20:34:59.771Z,80.50
2023-02-08T20:38:15.725Z,86.90
2023-02-08T20:41:23.206Z,72.60
2023-02-08T20:44:29.085Z,91.10
2023-02-08T20:58:58.005Z,153.90
2023-02-08T21:02:04.676Z,150.50
2023-02-08T21:05:09.118Z,104.90
2023-02-08T21:08:12.881Z,123.40
2023-02-08T21:11:14.981Z,130.60
2023-02-08T21:14:20.865Z,129.80
2023-02-08T21:17:24.031Z,105.00
2023-02-08T21:20:33.887Z,140.50
2023-02-08T21:23:43.246Z,100.50
2023-02-08T21:26:52.026Z,78.30
2023-02-08T21:29:58.970Z,73.20
2023-02-08T21:33:02.070Z,67.80
2023-02-08T21:36:10.122Z,60.20
2023-02-08T21:39:17.573Z,50.20
2023-02-08T21:42:23.627Z,45.90
2023-02-08T21:45:28.225Z,57.70
2023-02-08T21:48:55.156Z,54.40
2023-02-08T21:52:22.787Z,47.30
2023-02-08T21:55:33.780Z,67.20
2023-02-08T21:58:44.476Z,65.80
2023-02-08T22:01:48.988Z,59.30
2023-02-08T22:04:54.443Z,76.90
2023-02-08T22:08:00.821Z,64.10
2023-02-08T22:11:16.124Z,62.10
2023-02-08T22:14:19.924Z,71.20
2023-02-08T22:17:26.996Z,53.80
2023-02-08T22:20:30.327Z,49.70
2023-02-08T22:23:32.705Z,47.00
2023-02-08T22:26:39.028Z,42.80
2023-02-08T22:29:43.078Z,36.80
2023-02-08T22:32:48.557Z,38.20
2023-02-08T22:35:56.301Z,36.70
2023-02-08T22:39:00.246Z,45.10
2023-02-08T22:42:08.379Z,68.00
2023-02-08T22:45:13.000Z,58.50
2023-02-08T22:48:15.585Z,61.80
2023-02-08T22:51:23.138Z,49.40
2023-02-08T22:54:26.642Z,55.10
2023-02-08T22:57:31.688Z,44.70
2023-02-08T23:00:36.912Z,42.80
2023-02-08T23:03:41.281Z,40.10
2023-02-08T23:06:43.923Z,49.40
2023-02-08T23:09:47.767Z,44.00
2023-02-08T23:12:51.728Z,48.00
2023-02-08T23:15:56.559Z,71.80
2023-02-08T23:19:00.082Z,72.80
2023-02-08T23:22:03.358Z,85.50
